| time (UTC) | temp F | wind direction | speed MPH | gust MPH | rain 1hr in | rain 24hr in | rain mn in | humidity % | barometer mb |
| 20260904034551 | 53 | 244 | 6.0 | 16.0 | 0.04 | 0.14 | 0.04 | 89 | 1001.7 |
| 20260904033108 | 54 | 266 | 8.0 | 21.0 | 0.04 | 0.14 | 0.04 | 88 | 1001.7 |
| 20260904031551 | 57 | 231 | 4.0 | 14.0 | 0.00 | 0.10 | 0.00 | 88 | 1001.9 |
| 20260904030120 | 57 | 236 | 10.0 | 19.0 | 0.00 | 0.10 | 0.00 | 88 | 1001.9 |
| 20260904024622 | 57 | 213 | 8.0 | 18.0 | 0.00 | 0.10 | 0.00 | 87 | 1001.8 |
| 20260904023123 | 57 | 244 | 7.0 | 20.0 | 0.00 | 0.10 | 0.00 | 87 | 1001.9 |
| 20260904021500 | 57 | 183 | 11.0 | 23.0 | 0.00 | 0.10 | 0.00 | 87 | 1001.8 |
| 20260904020123 | 57 | 244 | 9.0 | 20.0 | 0.00 | 0.10 | 0.00 | 87 | 1001.7 |
| 20260904014612 | 57 | 204 | 12.0 | 17.0 | 0.00 | 0.11 | 0.00 | 87 | 1002.0 |
| 20260904013119 | 57 | 202 | 10.0 | 17.0 | 0.00 | 0.11 | 0.00 | 87 | 1002.1 |
| 20260904011544 | 57 | 203 | 9.0 | 18.0 | 0.00 | 0.11 | 0.00 | 88 | 1002.3 |
| 20260904010055 | 57 | 208 | 11.0 | 20.0 | 0.00 | 0.11 | 0.00 | 88 | 1002.8 |
| 20260904004555 | 57 | 201 | 8.0 | 20.0 | 0.00 | 0.12 | 0.00 | 88 | 1003.2 |
| 20260904003113 | 57 | 215 | 10.0 | 19.0 | 0.00 | 0.12 | 0.00 | 88 | 1003.3 |
| 20260904001601 | 57 | 261 | 9.0 | 20.0 | 0.00 | 0.12 | 0.00 | 89 | 1003.5 |
| 20260904000119 | 57 | 204 | 9.0 | 19.0 | 0.00 | 0.12 | 0.00 | 88 | 1003.7 |
| 20260903234557 | 57 | 284 | 11.0 | 19.0 | 0.00 | 0.17 | 0.00 | 88 | 1003.9 |
| 20260903233021 | 57 | 222 | 8.0 | 15.0 | 0.00 | 0.17 | 0.00 | 88 | 1004.0 |
| 20260903231522 | 57 | 221 | 8.0 | 15.0 | 0.00 | 0.17 | 0.00 | 88 | 1004.5 |
| 20260903230009 | 57 | 186 | 8.0 | 17.0 | 0.00 | 0.17 | 0.00 | 88 | 1004.6 |
| 20260903224629 | 57 | 221 | 9.0 | 19.0 | 0.00 | 0.19 | 0.17 | 87 | 1004.8 |
| 20260903223138 | 57 | 206 | 6.0 | 22.0 | 0.00 | 0.19 | 0.17 | 86 | 1004.8 |
| 20260903221511 | 57 | 265 | 10.0 | 20.0 | 0.00 | 0.19 | 0.17 | 87 | 1004.8 |
| 20260903220134 | 57 | 292 | 10.0 | 20.0 | 0.00 | 0.19 | 0.17 | 87 | 1005.2 |
| 20260903214604 | 57 | 196 | 9.0 | 20.0 | 0.00 | 0.19 | 0.17 | 88 | 1005.3 |
| 20260903213114 | 57 | 220 | 9.0 | 18.0 | 0.00 | 0.19 | 0.17 | 88 | 1005.5 |
| 20260903211551 | 57 | 211 | 8.0 | 16.0 | 0.00 | 0.19 | 0.17 | 87 | 1005.6 |
| 20260903210144 | 57 | 248 | 9.0 | 19.0 | 0.00 | 0.19 | 0.17 | 87 | 1005.8 |
| 20260903204559 | 57 | 227 | 9.0 | 22.0 | 0.00 | 0.26 | 0.17 | 86 | 1006.4 |
| 20260903203117 | 57 | 217 | 9.0 | 20.0 | 0.00 | 0.26 | 0.17 | 87 | 1006.4 |
| 20260903201557 | 58 | 241 | 10.0 | 22.0 | 0.00 | 0.26 | 0.17 | 86 | 1006.4 |
| 20260903200115 | 57 | 172 | 10.0 | 25.0 | 0.00 | 0.26 | 0.17 | 86 | 1006.5 |
| 20260903194558 | 57 | 221 | 12.0 | 20.0 | 0.00 | 0.28 | 0.17 | 86 | 1006.7 |
| 20260903193053 | 57 | 240 | 9.0 | 22.0 | 0.00 | 0.28 | 0.17 | 87 | 1006.6 |
| 20260903191537 | 57 | 271 | 10.0 | 21.0 | 0.00 | 0.28 | 0.17 | 87 | 1006.8 |
| 20260903190046 | 58 | 237 | 9.0 | 17.0 | 0.00 | 0.28 | 0.17 | 88 | 1007.0 |
| 20260903184549 | 57 | 210 | 8.0 | 15.0 | 0.00 | 0.28 | 0.17 | 88 | 1006.9 |
| 20260903183043 | 57 | 202 | 7.0 | 16.0 | 0.00 | 0.28 | 0.17 | 88 | 1006.7 |
| 20260903181551 | 57 | 229 | 9.0 | 15.0 | 0.00 | 0.28 | 0.17 | 88 | 1006.8 |
| 20260903180109 | 57 | 238 | 7.0 | 14.0 | 0.00 | 0.28 | 0.17 | 87 | 1007.0 |
| 20260903174553 | 57 | 257 | 8.0 | 19.0 | 0.00 | 0.28 | 0.17 | 88 | 1007.1 |
| 20260903173043 | 57 | 219 | 9.0 | 16.0 | 0.00 | 0.28 | 0.17 | 87 | 1007.2 |
| 20260903171518 | 57 | 201 | 10.0 | 22.0 | 0.02 | 0.28 | 0.17 | 88 | 1007.2 |
| 20260903170140 | 55 | 184 | 9.0 | 17.0 | 0.06 | 0.28 | 0.17 | 88 | 1007.3 |
| 20260903164554 | 55 | 215 | 9.0 | 19.0 | 0.06 | 0.28 | 0.17 | 90 | 1007.6 |
| 20260903163100 | 55 | 175 | 7.0 | 19.0 | 0.06 | 0.28 | 0.17 | 90 | 1008.0 |
| 20260903161537 | 56 | 270 | 6.0 | 22.0 | 0.06 | 0.27 | 0.14 | 89 | 1008.2 |
| 20260903160048 | 57 | 234 | 7.0 | 15.0 | 0.05 | 0.24 | 0.11 | 88 | 1008.3 |
| 20260903154544 | 57 | 292 | 6.0 | 13.0 | 0.04 | 0.23 | 0.10 | 87 | 1008.4 |
| 20260903153055 | 59 | 276 | 2.0 | 8.0 | 0.04 | 0.23 | 0.10 | 86 | 1008.6 |
| 20260903151532 | 61 | 259 | 5.0 | 11.0 | 0.02 | 0.20 | 0.08 | 80 | 1008.7 |
| 20260903150056 | 61 | 254 | 5.0 | 11.0 | 0.00 | 0.19 | 0.06 | 77 | 1008.7 |
| 20260903144542 | 61 | 272 | 5.0 | 12.0 | 0.00 | 0.20 | 0.06 | 77 | 1009.0 |
| 20260903143108 | 61 | 241 | 7.0 | 14.0 | 0.00 | 0.20 | 0.06 | 75 | 1009.2 |
| 20260903141606 | 61 | 273 | 5.0 | 15.0 | 0.00 | 0.20 | 0.06 | 75 | 1009.2 |
| 20260903140053 | 61 | 221 | 5.0 | 11.0 | 0.00 | 0.20 | 0.06 | 76 | 1008.9 |
| 20260903134558 | 61 | 246 | 3.0 | 15.0 | 0.00 | 0.20 | 0.06 | 74 | 1009.1 |
| 20260903133109 | 61 | 242 | 5.0 | 13.0 | 0.00 | 0.20 | 0.06 | 75 | 1009.3 |
| 20260903131608 | 61 | 217 | 7.0 | 18.0 | 0.00 | 0.20 | 0.06 | 73 | 1009.4 |
| 20260903130108 | 62 | 237 | 9.0 | 17.0 | 0.00 | 0.20 | 0.06 | 73 | 1009.2 |
| 20260903124554 | 62 | 284 | 4.0 | 14.0 | 0.00 | 0.20 | 0.06 | 76 | 1009.1 |
| 20260903123107 | 61 | 259 | 5.0 | 13.0 | 0.00 | 0.20 | 0.06 | 78 | 1009.3 |
| 20260903121620 | 61 | 293 | 4.0 | 12.0 | 0.00 | 0.20 | 0.06 | 78 | 1009.6 |
| 20260903120109 | 61 | 332 | 3.0 | 11.0 | 0.00 | 0.20 | 0.06 | 78 | 1009.2 |
| 20260903114555 | 61 | 259 | 4.0 | 13.0 | 0.00 | 0.20 | 0.06 | 76 | 1009.1 |
| 20260903113119 | 62 | 186 | 4.0 | 12.0 | 0.00 | 0.20 | 0.06 | 76 | 1009.3 |
| 20260903111600 | 61 | 222 | 6.0 | 15.0 | 0.00 | 0.20 | 0.06 | 75 | 1009.4 |
| 20260903110127 | 61 | 262 | 5.0 | 14.0 | 0.00 | 0.20 | 0.06 | 78 | 1009.1 |
| 20260903104600 | 62 | 284 | 7.0 | 17.0 | 0.00 | 0.20 | 0.06 | 77 | 1009.0 |
| 20260903103102 | 62 | 276 | 3.0 | 15.0 | 0.00 | 0.20 | 0.06 | 78 | 1009.1 |
| 20260903101551 | 60 | 275 | 8.0 | 13.0 | 0.00 | 0.20 | 0.06 | 78 | 1009.0 |
| 20260903100034 | 61 | 216 | 5.0 | 14.0 | 0.00 | 0.20 | 0.06 | 79 | 1009.4 |
| 20260903094534 | 60 | 289 | 10.0 | 17.0 | 0.00 | 0.22 | 0.06 | 77 | 1009.0 |
| 20260903093007 | 60 | 193 | 7.0 | 18.0 | 0.00 | 0.22 | 0.06 | 78 | 1009.0 |
| 20260903091606 | 60 | 271 | 7.0 | 15.0 | 0.00 | 0.22 | 0.06 | 80 | 1009.3 |
| 20260903090114 | 59 | 205 | 8.0 | 17.0 | 0.00 | 0.22 | 0.06 | 82 | 1009.1 |
| 20260903084549 | 57 | 284 | 5.0 | 16.0 | 0.00 | 0.22 | 0.06 | 84 | 1009.0 |
| 20260903083059 | 56 | 238 | 4.0 | 10.0 | 0.00 | 0.22 | 0.06 | 86 | 1008.9 |
| 20260903081553 | 57 | 222 | 3.0 | 14.0 | 0.00 | 0.22 | 0.06 | 86 | 1008.6 |
| 20260903080112 | 56 | 300 | 5.0 | 11.0 | 0.00 | 0.22 | 0.06 | 87 | 1008.4 |
| 20260903074554 | 56 | 259 | 6.0 | 18.0 | 0.00 | 0.22 | 0.06 | 87 | 1008.6 |
| 20260903073113 | 56 | 244 | 6.0 | 17.0 | 0.00 | 0.22 | 0.06 | 87 | 1008.6 |
| 20260903071558 | 56 | 254 | 6.0 | 13.0 | 0.00 | 0.22 | 0.06 | 88 | 1008.4 |
| 20260903070126 | 55 | 286 | 8.0 | 17.0 | 0.00 | 0.22 | 0.06 | 89 | 1008.3 |
| 20260903064559 | 55 | 222 | 6.0 | 18.0 | 0.00 | 0.22 | 0.06 | 90 | 1007.9 |
| 20260903063115 | 55 | 248 | 6.0 | 14.0 | 0.00 | 0.22 | 0.06 | 91 | 1008.0 |
| 20260903061602 | 55 | 236 | 7.0 | 18.0 | 0.00 | 0.22 | 0.06 | 92 | 1007.9 |
| 20260903060122 | 56 | 257 | 8.0 | 19.0 | 0.00 | 0.22 | 0.06 | 93 | 1007.7 |
| 20260903054531 | 56 | 261 | 7.0 | 14.0 | 0.00 | 0.23 | 0.06 | 94 | 1007.3 |
| 20260903053006 | 56 | 230 | 5.0 | 18.0 | 0.00 | 0.23 | 0.06 | 94 | 1007.2 |
| 20260903051507 | 56 | 246 | 6.0 | 19.0 | 0.00 | 0.23 | 0.06 | 94 | 1006.9 |
| 20260903050125 | 57 | 225 | 6.0 | 18.0 | 0.00 | 0.23 | 0.06 | 94 | 1006.7 |
| 20260903044515 | 57 | 252 | 5.0 | 11.0 | 0.00 | 0.23 | 0.06 | 94 | 1006.8 |
| 20260903043150 | 57 | 246 | 5.0 | 17.0 | 0.00 | 0.23 | 0.06 | 94 | 1006.6 |
| 20260903041509 | 57 | 252 | 5.0 | 15.0 | 0.00 | 0.23 | 0.06 | 94 | 1006.5 |
| 20260903040139 | 57 | 274 | 7.0 | 15.0 | 0.00 | 0.23 | 0.06 | 94 | 1006.6 |